createdAt,value
2018-12-24T00:01:15.487Z,22.33
2018-12-24T00:03:43.130Z,22.50
2018-12-24T00:06:10.875Z,24.30
2018-12-24T00:08:38.503Z,23.17
2018-12-24T00:11:06.105Z,26.40
2018-12-24T00:13:33.847Z,25.97
2018-12-24T00:16:04.945Z,25.57
2018-12-24T00:18:32.414Z,29.47
2018-12-24T00:21:02.739Z,30.57
2018-12-24T00:23:30.248Z,31.07
2018-12-24T00:26:03.394Z,30.63
2018-12-24T00:28:31.068Z,31.00
2018-12-24T00:30:58.707Z,30.47
2018-12-24T00:33:27.922Z,30.87
2018-12-24T00:35:55.461Z,33.10
2018-12-24T00:38:23.131Z,31.67
2018-12-24T00:40:54.306Z,32.40
2018-12-24T00:43:20.230Z,31.20
2018-12-24T00:45:47.745Z,33.20
2018-12-24T00:48:17.876Z,31.80
2018-12-24T00:50:45.397Z,31.50
2018-12-24T00:53:13.089Z,31.17
2018-12-24T00:55:42.067Z,29.03
2018-12-24T00:58:09.782Z,29.33
2018-12-24T01:00:41.744Z,28.67
2018-12-24T01:03:09.576Z,27.53
2018-12-24T01:05:42.886Z,29.73
2018-12-24T01:08:21.210Z,29.37
2018-12-24T01:10:50.978Z,27.87
2018-12-24T01:13:21.452Z,31.30
2018-12-24T01:15:50.186Z,31.07
2018-12-24T01:18:17.767Z,31.17
2018-12-24T01:20:49.453Z,31.27
2018-12-24T01:23:26.043Z,31.67
2018-12-24T01:25:55.216Z,28.37
2018-12-24T01:28:22.831Z,30.40
2018-12-24T01:30:51.964Z,31.03
2018-12-24T01:33:19.672Z,28.87
2018-12-24T01:35:53.317Z,30.87
2018-12-24T01:38:24.276Z,31.43
2018-12-24T01:40:53.441Z,30.80
2018-12-24T01:43:23.900Z,30.33
2018-12-24T01:45:51.591Z,30.90
2018-12-24T01:48:19.273Z,30.57
2018-12-24T01:50:46.750Z,30.30
2018-12-24T01:53:15.668Z,27.87
2018-12-24T01:55:45.012Z,30.37
2018-12-24T01:58:15.548Z,30.93
2018-12-24T02:00:45.665Z,27.93
2018-12-24T02:03:12.659Z,25.13
2018-12-24T02:05:40.571Z,22.90
2018-12-24T02:08:08.228Z,22.57
2018-12-24T02:10:35.759Z,23.07
2018-12-24T02:13:03.361Z,23.07
2018-12-24T02:15:30.965Z,22.07
2018-12-24T02:17:58.894Z,16.90
2018-12-24T02:20:26.439Z,15.33
2018-12-24T02:22:54.041Z,10.87
2018-12-24T02:25:21.587Z,11.67
2018-12-24T02:27:49.105Z,11.67
2018-12-24T02:30:16.692Z,10.63
2018-12-24T02:32:44.217Z,12.43
2018-12-24T02:35:11.759Z,11.30
2018-12-24T02:37:39.381Z,12.00
2018-12-24T02:40:08.475Z,11.10
2018-12-24T02:42:35.987Z,10.53
2018-12-24T02:45:03.596Z,9.50
2018-12-24T02:47:32.697Z,10.27
2018-12-24T02:50:00.309Z,9.70
2018-12-24T02:52:27.873Z,9.70
2018-12-24T02:54:57.026Z,10.40
2018-12-24T02:57:24.598Z,9.73
2018-12-24T02:59:52.282Z,8.67
2018-12-24T03:02:19.882Z,8.70
2018-12-24T03:04:47.407Z,10.17
2018-12-24T03:07:15.071Z,10.13
2018-12-24T03:09:42.643Z,9.53
2018-12-24T03:12:11.686Z,9.87
2018-12-24T03:14:40.912Z,10.00
2018-12-24T03:17:10.082Z,9.90
2018-12-24T03:19:37.579Z,10.77
2018-12-24T03:22:05.195Z,11.13
2018-12-24T03:24:34.882Z,11.27
2018-12-24T03:27:02.500Z,10.73
2018-12-24T03:29:30.184Z,11.97
2018-12-24T03:31:57.712Z,12.60
2018-12-24T03:34:25.251Z,11.70
2018-12-24T03:36:52.800Z,11.03
2018-12-24T03:39:20.390Z,11.67
2018-12-24T03:41:49.861Z,11.97
2018-12-24T03:44:17.591Z,10.73
2018-12-24T03:46:45.327Z,10.33
2018-12-24T03:49:12.998Z,11.73
2018-12-24T03:51:40.610Z,11.63
2018-12-24T03:54:11.200Z,9.57
2018-12-24T03:56:38.742Z,12.27
2018-12-24T03:59:06.407Z,12.20
2018-12-24T04:01:33.888Z,13.23
2018-12-24T04:04:01.405Z,13.57
2018-12-24T04:06:33.914Z,14.37
2018-12-24T04:09:01.438Z,14.13
2018-12-24T04:11:28.956Z,12.20
2018-12-24T04:13:56.601Z,11.67
2018-12-24T04:16:25.369Z,11.70
2018-12-24T04:18:52.836Z,10.90
2018-12-24T04:21:22.706Z,10.67
2018-12-24T04:23:49.829Z,11.33
2018-12-24T04:26:18.439Z,11.77
2018-12-24T04:28:46.012Z,11.77
2018-12-24T04:31:13.868Z,12.73
2018-12-24T04:33:41.472Z,11.47
2018-12-24T04:36:14.637Z,11.30
2018-12-24T04:38:42.182Z,11.63
2018-12-24T04:41:11.336Z,11.00
2018-12-24T04:43:41.664Z,12.40
2018-12-24T04:46:10.021Z,11.33
2018-12-24T04:48:37.612Z,13.40
2018-12-24T04:51:05.292Z,12.63
2018-12-24T04:53:32.813Z,12.47
2018-12-24T04:56:00.269Z,12.77
2018-12-24T04:58:27.954Z,12.00
2018-12-24T05:00:58.138Z,11.13
2018-12-24T05:03:25.752Z,12.13
2018-12-24T05:05:53.944Z,13.10
2018-12-24T05:08:22.073Z,13.50
2018-12-24T05:10:49.718Z,14.10
2018-12-24T05:13:17.837Z,13.23
2018-12-24T05:15:45.390Z,14.43
2018-12-24T05:18:13.150Z,13.87
2018-12-24T05:20:42.588Z,14.37
2018-12-24T05:23:10.157Z,17.67
2018-12-24T05:25:37.742Z,18.60
2018-12-24T05:28:05.539Z,20.90
2018-12-24T05:30:33.072Z,19.97
2018-12-24T05:33:00.658Z,19.63
2018-12-24T05:35:28.297Z,15.80
2018-12-24T05:37:55.925Z,16.50
2018-12-24T05:40:23.511Z,16.13
2018-12-24T05:42:52.653Z,11.30
2018-12-24T05:45:20.291Z,11.73
2018-12-24T05:47:47.830Z,12.37
2018-12-24T05:50:15.401Z,11.90
2018-12-24T05:52:44.594Z,9.90
2018-12-24T05:55:14.977Z,9.13
2018-12-24T05:57:42.622Z,9.87
2018-12-24T06:00:11.701Z,10.00
2018-12-24T06:02:39.254Z,10.10
2018-12-24T06:05:06.814Z,9.77
2018-12-24T06:07:34.258Z,12.03
2018-12-24T06:10:01.834Z,11.37
2018-12-24T06:12:29.428Z,13.70
2018-12-24T06:14:57.252Z,14.43
2018-12-24T06:17:24.699Z,12.67
2018-12-24T06:19:52.343Z,13.97
2018-12-24T06:22:19.905Z,14.33
2018-12-24T06:24:47.484Z,11.73
2018-12-24T06:27:15.160Z,12.27
2018-12-24T06:29:42.846Z,10.90
2018-12-24T06:32:13.620Z,12.40
2018-12-24T06:34:41.323Z,10.90
2018-12-24T06:37:08.954Z,10.77
2018-12-24T06:39:36.839Z,8.93
2018-12-24T06:42:04.790Z,11.17
2018-12-24T06:44:32.340Z,9.90
2018-12-24T06:47:00.007Z,9.90
2018-12-24T06:49:30.170Z,9.90
2018-12-24T06:51:57.793Z,10.67
2018-12-24T06:54:27.014Z,14.93
2018-12-24T06:56:54.700Z,16.77
2018-12-24T06:59:22.238Z,17.50
2018-12-24T07:01:49.734Z,16.97
2018-12-24T07:04:17.360Z,15.90
2018-12-24T07:06:45.313Z,18.40
2018-12-24T07:09:15.900Z,19.80
2018-12-24T07:11:43.426Z,15.10
2018-12-24T07:14:15.407Z,14.10
2018-12-24T07:16:40.152Z,13.03
2018-12-24T07:19:07.735Z,10.30
2018-12-24T07:21:35.316Z,12.73
2018-12-24T07:24:03.006Z,14.40
2018-12-24T07:26:30.650Z,9.93
2018-12-24T07:28:59.206Z,10.77
2018-12-24T07:31:27.008Z,10.20
2018-12-24T07:33:54.606Z,12.77
2018-12-24T07:36:22.068Z,15.73
2018-12-24T07:38:49.497Z,14.03
2018-12-24T07:41:17.224Z,14.17
2018-12-24T07:43:46.308Z,13.97
2018-12-24T07:46:15.508Z,14.67
2018-12-24T07:48:43.068Z,12.03
2018-12-24T07:51:10.671Z,12.63
2018-12-24T07:53:38.128Z,13.30
2018-12-24T07:56:05.758Z,8.03
2018-12-24T07:58:33.394Z,13.23
2018-12-24T08:01:00.904Z,11.00
2018-12-24T08:03:28.470Z,12.33
2018-12-24T08:05:55.959Z,9.33
2018-12-24T08:08:23.455Z,14.07
2018-12-24T08:10:51.047Z,14.13
2018-12-24T08:13:18.620Z,16.93
2018-12-24T08:15:46.174Z,12.30
2018-12-24T08:18:16.374Z,13.20
2018-12-24T08:20:43.970Z,29.80
2018-12-24T08:23:11.467Z,18.77
2018-12-24T08:25:40.724Z,14.70
2018-12-24T08:28:08.443Z,13.97
2018-12-24T08:30:36.021Z,13.03
2018-12-24T08:33:05.546Z,13.03
2018-12-24T08:35:34.134Z,14.60
2018-12-24T08:38:01.744Z,10.93
2018-12-24T08:40:30.958Z,15.17
2018-12-24T08:43:00.544Z,12.43
2018-12-24T08:45:29.250Z,13.70
2018-12-24T08:47:56.802Z,13.60
2018-12-24T08:50:25.441Z,11.37
2018-12-24T08:52:53.082Z,12.33
2018-12-24T08:55:20.693Z,13.43
2018-12-24T08:57:48.223Z,14.57
2018-12-24T09:00:17.480Z,14.77
2018-12-24T09:02:44.987Z,16.07
2018-12-24T09:05:14.231Z,14.20
2018-12-24T09:07:41.808Z,15.77
2018-12-24T09:10:09.676Z,13.43
2018-12-24T09:12:37.488Z,11.73
2018-12-24T09:15:06.417Z,12.90
2018-12-24T09:17:35.090Z,16.50
2018-12-24T09:20:02.822Z,13.30
2018-12-24T09:22:30.497Z,12.20
2018-12-24T09:24:58.125Z,15.10
2018-12-24T09:27:25.585Z,15.70
2018-12-24T09:29:53.097Z,13.70
2018-12-24T09:32:20.720Z,24.43
2018-12-24T09:34:48.278Z,21.27
2018-12-24T09:37:15.942Z,50.93
2018-12-24T09:39:43.532Z,46.17
2018-12-24T09:42:11.060Z,32.10
2018-12-24T09:44:38.736Z,28.03
2018-12-24T09:47:06.480Z,25.77
2018-12-24T09:49:34.020Z,19.90
2018-12-24T09:52:01.539Z,12.23
2018-12-24T09:54:29.460Z,19.27
2018-12-24T09:56:56.915Z,13.90
2018-12-24T09:59:24.539Z,50.53
2018-12-24T10:01:52.111Z,18.27
2018-12-24T10:04:20.918Z,15.50
2018-12-24T10:06:50.256Z,19.77
2018-12-24T10:09:17.868Z,22.50
2018-12-24T10:11:45.420Z,17.50
2018-12-24T10:14:12.955Z,20.93
2018-12-24T10:16:40.574Z,16.97
2018-12-24T10:19:08.112Z,17.50
2018-12-24T10:21:37.735Z,16.87
2018-12-24T10:24:06.617Z,17.50
2018-12-24T10:26:34.206Z,18.40
2018-12-24T10:29:01.784Z,17.80
2018-12-24T10:31:29.368Z,18.17
2018-12-24T10:33:56.985Z,16.30
2018-12-24T10:36:24.674Z,17.27
2018-12-24T10:38:52.356Z,11.67
2018-12-24T10:41:22.842Z,20.47
2018-12-24T10:43:50.406Z,14.50
2018-12-24T10:46:23.088Z,14.47
2018-12-24T10:48:50.754Z,12.70
2018-12-24T10:51:21.234Z,16.33
2018-12-24T10:53:49.855Z,16.23
2018-12-24T10:56:17.293Z,16.53
2018-12-24T10:59:55.746Z,23.83
2018-12-24T11:02:23.133Z,17.87
2018-12-24T11:04:52.164Z,8.37
2018-12-24T11:07:21.302Z,12.40
2018-12-24T11:09:48.746Z,12.17
2018-12-24T11:12:16.158Z,7.00
2018-12-24T11:14:43.671Z,7.80
2018-12-24T11:17:11.018Z,5.77
2018-12-24T11:19:38.399Z,8.83
2018-12-24T11:22:06.034Z,10.97
2018-12-24T11:24:33.373Z,12.60
2018-12-24T11:27:00.786Z,11.03
2018-12-24T11:29:28.302Z,9.10
2018-12-24T11:31:55.706Z,10.87
2018-12-24T11:34:23.262Z,10.30
2018-12-24T11:36:50.771Z,11.43
2018-12-24T11:39:18.214Z,9.53
2018-12-24T11:41:45.670Z,8.73
2018-12-24T11:44:13.179Z,17.77
2018-12-24T11:46:40.603Z,13.07
2018-12-24T11:49:08.000Z,8.47
2018-12-24T11:51:35.523Z,11.33
2018-12-24T11:54:02.986Z,12.37
2018-12-24T11:56:30.506Z,8.23
2018-12-24T11:58:57.976Z,7.27
2018-12-24T12:01:25.448Z,8.67
2018-12-24T12:03:54.439Z,11.37
2018-12-24T12:06:24.158Z,9.47
2018-12-24T12:08:53.846Z,12.43
2018-12-24T12:11:24.600Z,12.33
2018-12-24T12:13:52.172Z,12.40
2018-12-24T12:16:19.787Z,10.73
2018-12-24T12:18:47.311Z,12.20
2018-12-24T12:21:14.837Z,12.17
2018-12-24T12:23:44.227Z,10.27
2018-12-24T12:26:11.592Z,7.40
2018-12-24T12:28:39.012Z,8.43
2018-12-24T12:31:06.390Z,9.03
2018-12-24T12:33:36.008Z,6.63
2018-12-24T12:36:03.173Z,4.40
2018-12-24T12:38:30.591Z,5.83
2018-12-24T12:40:58.057Z,5.37
2018-12-24T12:43:25.589Z,6.87
2018-12-24T12:45:53.076Z,6.13
2018-12-24T12:48:21.415Z,6.47
2018-12-24T12:50:48.952Z,5.53
2018-12-24T12:53:16.304Z,4.63
2018-12-24T12:55:43.720Z,7.83
2018-12-24T12:58:11.235Z,7.73
2018-12-24T13:00:38.634Z,8.17
2018-12-24T13:03:06.040Z,9.80
2018-12-24T13:05:33.494Z,7.03
2018-12-24T13:08:00.930Z,7.40
2018-12-24T13:10:28.540Z,7.67
2018-12-24T13:12:55.970Z,7.53
2018-12-24T13:15:23.582Z,8.20
2018-12-24T13:17:50.914Z,6.73
2018-12-24T13:20:25.039Z,9.73
2018-12-24T13:22:47.647Z,10.23
2018-12-24T13:25:15.066Z,10.00
2018-12-24T13:27:42.462Z,12.23
2018-12-24T13:30:09.797Z,10.50
2018-12-24T13:32:37.196Z,10.73
2018-12-24T13:35:04.696Z,10.90
2018-12-24T13:37:32.478Z,13.57
2018-12-24T13:39:59.810Z,13.47
2018-12-24T13:42:27.196Z,13.37
2018-12-24T13:44:54.601Z,16.47
2018-12-24T13:47:21.936Z,15.53
2018-12-24T13:49:49.464Z,11.27
2018-12-24T13:52:16.852Z,10.20
2018-12-24T13:54:44.239Z,8.63
2018-12-24T13:57:11.900Z,10.00
2018-12-24T13:59:39.413Z,11.90
2018-12-24T14:02:06.822Z,11.13
2018-12-24T14:04:34.553Z,10.27
2018-12-24T14:07:01.972Z,11.40
2018-12-24T14:09:29.431Z,11.37
2018-12-24T14:11:56.907Z,9.70
2018-12-24T14:14:24.401Z,11.10
2018-12-24T14:16:51.905Z,11.40
2018-12-24T14:19:19.359Z,7.80
2018-12-24T14:21:46.757Z,7.43
2018-12-24T14:24:14.150Z,9.57
2018-12-24T14:26:41.703Z,10.13
2018-12-24T14:29:09.089Z,9.10
2018-12-24T14:31:36.623Z,11.67
2018-12-24T14:34:04.220Z,9.53
2018-12-24T14:36:31.664Z,9.37
2018-12-24T14:38:59.128Z,7.00
2018-12-24T14:41:26.569Z,10.97
2018-12-24T14:43:54.002Z,16.27
2018-12-24T14:46:25.600Z,14.33
2018-12-24T14:48:50.539Z,10.87
2018-12-24T14:51:17.899Z,9.97
2018-12-24T14:53:45.365Z,10.77
2018-12-24T14:56:12.861Z,7.50
2018-12-24T14:58:40.265Z,10.03
2018-12-24T15:01:07.607Z,10.43
2018-12-24T15:03:35.047Z,8.40
2018-12-24T15:06:02.515Z,6.97
2018-12-24T15:08:32.013Z,10.03
2018-12-24T15:10:59.534Z,11.97
2018-12-24T15:13:26.973Z,13.73
2018-12-24T15:15:54.407Z,10.60
2018-12-24T15:18:21.827Z,7.90
2018-12-24T15:20:49.241Z,9.20
2018-12-24T15:23:18.669Z,9.83
2018-12-24T15:25:46.130Z,7.80
2018-12-24T15:28:13.563Z,8.63
2018-12-24T15:30:41.105Z,16.07
2018-12-24T15:33:08.679Z,12.43
2018-12-24T15:35:36.148Z,13.00
2018-12-24T15:38:03.585Z,13.20
2018-12-24T15:40:31.124Z,12.47
2018-12-24T15:42:58.681Z,12.53
2018-12-24T15:45:26.013Z,10.97
2018-12-24T15:47:53.592Z,10.87
2018-12-24T15:50:21.091Z,10.67
2018-12-24T15:52:48.478Z,10.27
2018-12-24T15:55:16.359Z,11.73
2018-12-24T15:57:43.713Z,14.63
2018-12-24T16:00:11.197Z,13.17
2018-12-24T16:02:38.651Z,9.23
2018-12-24T16:05:06.316Z,11.27
2018-12-24T16:10:35.935Z,7.83
2018-12-24T16:13:03.396Z,8.60
2018-12-24T16:15:39.763Z,8.47
2018-12-24T16:21:01.795Z,8.63
2018-12-24T16:26:25.022Z,8.27
2018-12-24T16:28:52.637Z,4.87
2018-12-24T16:31:29.167Z,6.80
2018-12-24T16:34:00.496Z,8.37
2018-12-24T16:38:27.355Z,7.00
2018-12-24T16:39:21.462Z,12.13
2018-12-24T16:42:05.127Z,15.37
2018-12-24T16:44:32.688Z,11.80
2018-12-24T16:47:00.148Z,14.33
2018-12-24T16:49:39.746Z,14.67
2018-12-24T16:51:58.508Z,11.10
2018-12-24T16:54:26.026Z,9.20
2018-12-24T16:56:53.575Z,7.17
2018-12-24T17:02:23.101Z,8.20
2018-12-24T17:08:35.565Z,6.73
2018-12-24T17:11:06.980Z,8.30
2018-12-24T17:13:52.969Z,8.47
2018-12-24T17:16:23.021Z,8.10
2018-12-24T17:18:50.522Z,8.60
2018-12-24T17:21:17.836Z,10.83
2018-12-24T17:25:44.458Z,16.07
2018-12-24T17:26:39.787Z,9.73
2018-12-24T17:29:32.055Z,10.10
2018-12-24T17:31:59.582Z,21.50
2018-12-24T17:34:27.074Z,24.03
2018-12-24T17:36:54.430Z,18.90
2018-12-24T17:39:21.812Z,20.47
2018-12-24T17:41:49.572Z,16.80
2018-12-24T17:44:17.087Z,16.07
2018-12-24T17:46:44.451Z,15.23
2018-12-24T17:49:11.824Z,17.67
2018-12-24T17:51:39.244Z,21.13
2018-12-24T17:54:06.708Z,10.77
2018-12-24T17:56:34.218Z,10.97
2018-12-24T17:59:01.686Z,12.30
2018-12-24T18:01:29.109Z,13.00
2018-12-24T18:03:56.606Z,11.03
2018-12-24T18:06:24.015Z,10.00
2018-12-24T18:08:51.746Z,11.70
2018-12-24T18:11:19.174Z,9.73
2018-12-24T18:13:46.917Z,12.03
2018-12-24T18:16:14.292Z,10.10
2018-12-24T18:18:41.728Z,9.90
2018-12-24T18:21:09.312Z,16.27
2018-12-24T18:23:39.869Z,11.37
2018-12-24T18:26:07.464Z,10.87
2018-12-24T18:28:34.953Z,9.90
2018-12-24T18:31:02.263Z,11.50
2018-12-24T18:33:29.710Z,10.60
2018-12-24T18:35:57.186Z,9.30
2018-12-24T18:38:24.693Z,8.73
2018-12-24T18:40:52.079Z,9.50
2018-12-24T18:43:19.617Z,11.20
2018-12-24T18:45:47.142Z,13.93
2018-12-24T18:48:14.683Z,14.47
2018-12-24T18:50:43.720Z,13.47
2018-12-24T18:53:11.122Z,10.47
2018-12-24T18:55:38.648Z,13.17
2018-12-24T18:58:06.094Z,13.60
2018-12-24T19:00:33.632Z,16.63
2018-12-24T19:03:01.156Z,11.60
2018-12-24T19:05:28.496Z,14.37
2018-12-24T19:07:56.088Z,17.97
2018-12-24T19:10:23.965Z,14.70
2018-12-24T19:12:51.309Z,11.83
2018-12-24T19:15:18.897Z,11.03
2018-12-24T19:17:46.481Z,13.53
2018-12-24T19:20:13.886Z,13.77
2018-12-24T19:22:41.239Z,11.73
2018-12-24T19:25:11.269Z,13.13
2018-12-24T19:27:38.710Z,14.17
2018-12-24T19:30:07.210Z,17.93
2018-12-24T19:32:34.591Z,14.50
2018-12-24T19:35:03.310Z,8.43
2018-12-24T19:37:32.271Z,25.47
2018-12-24T19:39:59.935Z,15.10
2018-12-24T19:42:27.296Z,12.20
2018-12-24T19:44:54.789Z,10.33
2018-12-24T19:47:23.587Z,9.10
2018-12-24T19:49:51.002Z,11.00
2018-12-24T19:52:18.486Z,12.47
2018-12-24T19:54:46.020Z,11.60
2018-12-24T19:57:13.829Z,10.20
2018-12-24T19:59:42.849Z,11.90
2018-12-24T20:02:13.252Z,8.37
2018-12-24T20:04:42.354Z,11.13
2018-12-24T20:07:09.828Z,11.73
2018-12-24T20:09:37.390Z,9.27
2018-12-24T20:12:04.820Z,8.40
2018-12-24T20:14:32.206Z,7.37
2018-12-24T20:16:59.810Z,9.43
2018-12-24T20:19:27.397Z,9.33
2018-12-24T20:21:54.889Z,6.97
2018-12-24T20:24:22.375Z,6.80
2018-12-24T20:26:54.933Z,5.93
2018-12-24T20:29:22.341Z,7.53
2018-12-24T20:31:49.830Z,5.80
2018-12-24T20:34:17.317Z,7.37
2018-12-24T20:36:44.827Z,7.20
2018-12-24T20:39:12.248Z,6.37
2018-12-24T20:41:39.691Z,7.50
2018-12-24T20:44:07.017Z,6.00
2018-12-24T20:46:34.473Z,6.07
2018-12-24T20:49:01.930Z,7.83
2018-12-24T20:51:29.420Z,8.50
2018-12-24T20:53:57.009Z,8.33
2018-12-24T20:56:24.535Z,7.30
2018-12-24T20:58:52.007Z,6.87
2018-12-24T21:01:19.561Z,10.43
2018-12-24T21:03:46.936Z,12.53
2018-12-24T21:06:14.333Z,10.90
2018-12-24T21:08:41.865Z,11.33
2018-12-24T21:11:10.891Z,12.53
2018-12-24T21:13:38.242Z,12.67
2018-12-24T21:16:05.767Z,11.83
2018-12-24T21:18:33.093Z,14.83
2018-12-24T21:21:00.512Z,15.73
2018-12-24T21:23:28.040Z,12.53
2018-12-24T21:25:55.469Z,13.93
2018-12-24T21:28:22.946Z,12.70
2018-12-24T21:30:50.405Z,14.33
2018-12-24T21:33:19.595Z,15.07
2018-12-24T21:35:47.032Z,14.67
2018-12-24T21:38:14.623Z,17.13
2018-12-24T21:40:42.056Z,15.67
2018-12-24T21:43:09.976Z,20.03
2018-12-24T21:45:37.488Z,18.83
2018-12-24T21:48:04.877Z,13.60
2018-12-24T21:50:32.843Z,15.40
2018-12-24T21:53:00.412Z,20.27
2018-12-24T21:55:27.765Z,21.00
2018-12-24T21:57:55.095Z,22.50
2018-12-24T22:00:22.645Z,23.20
2018-12-24T22:02:50.044Z,20.17
2018-12-24T22:05:17.434Z,16.97
2018-12-24T22:07:45.292Z,13.63
2018-12-24T22:10:12.768Z,15.57
2018-12-24T22:12:40.177Z,12.80
2018-12-24T22:15:07.558Z,11.20
2018-12-24T22:17:34.937Z,9.60
2018-12-24T22:20:02.341Z,9.17
2018-12-24T22:22:29.783Z,9.03
2018-12-24T22:24:57.199Z,10.90
2018-12-24T22:27:24.509Z,11.00
2018-12-24T22:29:52.128Z,12.10
2018-12-24T22:32:19.593Z,11.50
2018-12-24T22:34:47.029Z,11.50
2018-12-24T22:37:14.591Z,12.20
2018-12-24T22:39:42.074Z,11.63
2018-12-24T22:42:09.494Z,9.80
2018-12-24T22:44:36.975Z,12.83
2018-12-24T22:47:04.403Z,12.73
2018-12-24T22:49:31.874Z,13.73
2018-12-24T22:51:59.327Z,11.83
2018-12-24T22:54:26.745Z,13.37
2018-12-24T22:56:54.144Z,13.07
2018-12-24T22:59:21.549Z,11.87
2018-12-24T23:01:49.103Z,11.03
2018-12-24T23:04:16.529Z,14.17
2018-12-24T23:06:45.891Z,18.37
2018-12-24T23:09:13.448Z,11.13
2018-12-24T23:11:40.798Z,8.83
2018-12-24T23:14:09.990Z,10.50
2018-12-24T23:16:37.415Z,7.27
2018-12-24T23:19:06.399Z,7.30
2018-12-24T23:21:33.995Z,10.60
2018-12-24T23:24:01.559Z,8.27
2018-12-24T23:26:29.027Z,6.37
2018-12-24T23:28:56.471Z,9.97
2018-12-24T23:31:24.025Z,7.33
2018-12-24T23:33:53.068Z,6.73
2018-12-24T23:36:20.500Z,8.20
2018-12-24T23:38:48.243Z,6.57
2018-12-24T23:41:15.976Z,8.27
2018-12-24T23:43:43.434Z,6.80
2018-12-24T23:46:10.910Z,6.87
2018-12-24T23:48:38.308Z,7.17
2018-12-24T23:51:06.638Z,6.83
2018-12-24T23:53:34.042Z,9.07
2018-12-24T23:56:01.424Z,7.33
2018-12-24T23:58:28.910Z,7.00
